Terminal Aerodrome Forecast
Issued by NWS Grand Forks, ND

Home | Current Version | Previous Version | Text Only | Print | Product List | Glossary Off
Versions: 1 2 3 4 5 6 7 8 9 10 11 12 13 14 15 16 17 18 19 20

000
FTUS43 KFGF 180500
TAFFAR
TAF
KFAR 180520Z 1806/1906 14008KT 6SM -TSRA BR OVC012CB
     FM180900 17008KT 6SM BR OVC008
      TEMPO 1809/1813 3SM BR OVC004
     FM181800 29010KT P6SM BKN025
     FM182000 31011KT P6SM VCTS BKN035CB=

USA.gov is the U.S. government's official web portal to all federal, state and local government web resources and services.